Time;durP1;ratioP1;P1;durP2;ratioP2;P2;SDS_P1;SDS_P2;PMS_P1;PMS_P2;Temp;Humidity;BMP_temperature;BMP_pressure;BME280_temperature;BME280_humidity;BME280_pressure;Samples;Min_cycle;Max_cycle;Signal;HPM_P1;HPM_P2
2023/06/28 00:01:00;;;;;;;4.33;0.73;;;12.70;99.90;12.50;100555.00;;;;4976399;28;110212;-64
2023/06/28 00:03:26;;;;;;;2.13;1.50;;;12.50;99.90;12.50;100547.00;;;;4975456;28;87925;-64
2023/06/28 00:05:52;;;;;;;0.63;0.60;;;12.50;99.90;12.50;100554.00;;;;4975823;28;107165;-64
2023/06/28 00:08:18;;;;;;;1.30;1.03;;;12.40;99.90;12.40;100554.00;;;;4971831;28;88571;-64
2023/06/28 00:10:44;;;;;;;1.23;1.13;;;12.40;99.90;12.40;100541.00;;;;4974558;28;108134;-64
2023/06/28 00:13:10;;;;;;;1.60;1.50;;;12.40;99.90;12.40;100554.00;;;;4975874;28;91770;-64
2023/06/28 00:15:35;;;;;;;3.13;0.97;;;12.40;99.90;12.30;100548.00;;;;4971596;28;117588;-64
2023/06/28 00:18:02;;;;;;;1.20;1.10;;;12.40;99.90;12.30;100551.00;;;;4967812;28;116002;-64
2023/06/28 00:20:28;;;;;;;0.90;0.90;;;12.40;99.90;12.30;100540.00;;;;4975712;28;87732;-64
2023/06/28 00:22:55;;;;;;;0.73;0.67;;;12.30;99.90;12.20;100542.00;;;;4975663;28;88057;-64
2023/06/28 00:25:21;;;;;;;2.17;1.10;;;12.30;99.90;12.20;100534.00;;;;4975552;28;88707;-64
2023/06/28 00:27:47;;;;;;;0.87;0.87;;;12.30;99.90;12.20;100539.00;;;;4974651;28;116973;-64
2023/06/28 00:30:13;;;;;;;0.80;0.80;;;12.20;99.90;12.10;100533.00;;;;4974379;28;97275;-64
2023/06/28 00:32:39;;;;;;;1.33;1.10;;;12.20;99.90;12.10;100545.00;;;;4980417;28;87912;-64
2023/06/28 00:35:06;;;;;;;1.30;1.20;;;12.10;99.90;12.10;100544.00;;;;4973732;28;89012;-64
2023/06/28 00:37:32;;;;;;;2.73;2.10;;;12.10;99.90;12.10;100538.00;;;;4971002;28;109712;-67
2023/06/28 00:39:59;;;;;;;2.30;1.60;;;12.10;99.90;12.00;100543.00;;;;4973765;28;88130;-64
2023/06/28 00:42:24;;;;;;;3.17;1.60;;;12.00;99.90;12.00;100557.00;;;;4975164;28;87985;-64
2023/06/28 00:44:53;;;;;;;2.70;1.87;;;12.00;99.90;12.00;100544.00;;;;4972779;28;117590;-64
2023/06/28 00:47:19;;;;;;;2.40;2.20;;;12.00;99.90;12.00;100549.00;;;;4976022;28;118770;-64
2023/06/28 00:49:45;;;;;;;1.70;1.60;;;12.00;99.90;12.00;100545.00;;;;4977766;28;108455;-65
2023/06/28 00:52:12;;;;;;;3.03;2.20;;;12.00;99.90;12.10;100550.00;;;;4976931;28;88170;-64
2023/06/28 00:54:40;;;;;;;3.47;2.40;;;12.00;99.90;12.10;100542.00;;;;4976626;28;87344;-64
2023/06/28 00:57:07;;;;;;;1.37;1.27;;;12.10;99.90;12.20;100544.00;;;;4974840;28;88441;-65
2023/06/28 00:59:34;;;;;;;1.73;1.40;;;12.10;99.90;12.20;100549.00;;;;4970923;28;101124;-64
2023/06/28 01:02:01;;;;;;;1.20;1.10;;;12.20;99.90;12.20;100547.00;;;;4971872;27;108660;-64
2023/06/28 01:04:26;;;;;;;1.67;1.00;;;12.20;99.90;12.20;100553.00;;;;4972920;28;106475;-64
2023/06/28 01:06:54;;;;;;;1.83;1.27;;;12.20;99.90;12.20;100553.00;;;;4960658;28;117916;-64
2023/06/28 01:09:23;;;;;;;0.90;0.80;;;12.20;99.90;12.30;100551.00;;;;4947893;28;97491;-64
2023/06/28 01:11:51;;;;;;;2.23;1.30;;;12.20;99.90;12.20;100554.00;;;;4952825;28;99373;-64
2023/06/28 01:14:18;;;;;;;1.23;0.90;;;12.30;99.90;12.20;100547.00;;;;4949128;28;88060;-64
2023/06/28 01:16:49;;;;;;;1.33;1.07;;;12.20;99.90;12.20;100565.00;;;;4939521;28;88012;-65
2023/06/28 01:19:16;;;;;;;2.60;1.50;;;12.20;99.90;12.20;100555.00;;;;4954545;28;87088;-64
2023/06/28 01:21:47;;;;;;;2.97;2.27;;;12.20;99.90;12.10;100558.00;;;;4936120;28;108645;-64
2023/06/28 01:24:13;;;;;;;3.83;2.40;;;12.10;99.90;12.10;100560.00;;;;4935772;28;117991;-64
2023/06/28 01:26:40;;;;;;;5.60;3.03;;;12.30;99.90;12.10;100557.00;;;;4937226;28;89599;-65
2023/06/28 01:29:07;;;;;;;5.47;3.10;;;12.10;99.90;12.00;100556.00;;;;4949868;28;109541;-65
2023/06/28 01:31:36;;;;;;;4.37;2.50;;;12.00;99.90;12.00;100560.00;;;;4952393;28;87924;-65
2023/06/28 01:34:02;;;;;;;3.13;2.27;;;12.00;99.90;12.00;100550.00;;;;4953144;28;88141;-65
2023/06/28 01:36:28;;;;;;;3.47;2.63;;;12.00;99.90;11.90;100555.00;;;;4951692;28;88297;-65
2023/06/28 01:38:56;;;;;;;2.50;2.13;;;11.90;99.90;11.90;100559.00;;;;4954484;28;88216;-65
2023/06/28 01:41:23;;;;;;;1.87;1.27;;;11.90;99.90;11.90;100561.00;;;;4952275;28;89269;-66
2023/06/28 01:43:49;;;;;;;1.57;1.30;;;11.90;99.90;11.80;100563.00;;;;4938697;28;88263;-64
2023/06/28 01:46:15;;;;;;;2.20;1.60;;;11.80;99.90;11.80;100571.00;;;;4934433;28;116799;-66
2023/06/28 01:48:50;;;;;;;1.87;1.30;;;11.80;99.90;11.80;100569.00;;;;4933400;28;107757;-66
2023/06/28 01:51:16;;;;;;;1.63;1.47;;;11.80;99.90;11.80;100566.00;;;;4950986;28;108881;-65
2023/06/28 01:53:42;;;;;;;5.87;2.33;;;11.80;99.90;11.90;100566.00;;;;4934286;28;88831;-65
2023/06/28 01:56:08;;;;;;;2.10;1.63;;;11.90;99.90;12.00;100568.00;;;;4948157;28;117432;-65
2023/06/28 01:58:33;;;;;;;2.10;1.90;;;11.90;99.90;12.00;100567.00;;;;4947912;28;110535;-64
2023/06/28 02:00:59;;;;;;;2.93;1.90;;;12.00;99.90;12.10;100565.00;;;;4950541;28;108893;-64
2023/06/28 02:03:25;;;;;;;2.93;1.77;;;12.10;99.90;12.10;100577.00;;;;4954449;28;117635;-65
2023/06/28 02:05:50;;;;;;;2.77;1.40;;;12.10;99.90;12.20;100565.00;;;;4953904;28;116968;-64
2023/06/28 02:08:16;;;;;;;1.90;1.57;;;12.20;99.90;12.20;100571.00;;;;4971741;28;109925;-65
2023/06/28 02:10:42;;;;;;;1.33;1.17;;;12.20;99.90;12.30;100570.00;;;;4971393;28;88976;-64
2023/06/28 02:13:07;;;;;;;3.33;1.57;;;12.30;99.90;12.30;100565.00;;;;4968960;28;117525;-64
2023/06/28 02:15:34;;;;;;;1.87;0.97;;;12.30;99.90;12.40;100572.00;;;;4967297;28;89035;-66
2023/06/28 02:18:00;;;;;;;1.67;1.10;;;12.30;99.90;12.40;100578.00;;;;4968851;28;87807;-66
2023/06/28 02:20:25;;;;;;;1.70;1.40;;;12.40;99.90;12.40;100575.00;;;;4973113;28;108431;-66
2023/06/28 02:22:51;;;;;;;1.47;1.37;;;12.30;99.90;12.40;100576.00;;;;4971024;28;88954;-66
2023/06/28 02:25:17;;;;;;;2.60;1.17;;;12.40;99.90;12.40;100570.00;;;;4970104;28;115434;-66
2023/06/28 02:27:43;;;;;;;1.30;1.20;;;12.60;99.90;12.40;100572.00;;;;4971132;28;87828;-66
2023/06/28 02:30:09;;;;;;;1.40;1.30;;;12.40;99.90;12.40;100570.00;;;;4972208;28;87735;-65
2023/06/28 02:32:34;;;;;;;2.13;0.90;;;12.40;99.90;12.40;100577.00;;;;4973595;28;87771;-66
2023/06/28 02:35:00;;;;;;;1.83;0.87;;;12.40;99.90;12.40;100580.00;;;;4968521;28;88149;-66
2023/06/28 02:37:26;;;;;;;1.03;0.90;;;12.40;99.90;12.30;100567.00;;;;4969771;28;110100;-66
2023/06/28 02:39:51;;;;;;;1.10;0.87;;;12.30;99.90;12.30;100570.00;;;;4970055;28;108861;-66
2023/06/28 02:42:17;;;;;;;1.57;1.43;;;12.30;99.90;12.20;100571.00;;;;4969762;28;88264;-65
2023/06/28 02:44:43;;;;;;;1.37;1.00;;;12.30;99.90;12.20;100572.00;;;;4971286;28;116824;-66
2023/06/28 02:47:08;;;;;;;2.13;1.13;;;12.20;99.90;12.20;100573.00;;;;4976672;28;87720;-63
2023/06/28 02:49:34;;;;;;;0.83;0.83;;;12.20;99.90;12.10;100583.00;;;;4970930;28;108104;-63
2023/06/28 02:52:00;;;;;;;1.37;1.27;;;12.10;99.90;12.10;100586.00;;;;4967222;28;119068;-66
2023/06/28 02:54:25;;;;;;;1.13;0.90;;;12.10;99.90;12.10;100578.00;;;;4969515;28;88114;-66
2023/06/28 02:56:51;;;;;;;1.40;1.30;;;12.10;99.90;12.00;100579.00;;;;4968519;28;108793;-64
2023/06/28 02:59:17;;;;;;;4.37;1.60;;;12.00;99.90;12.00;100576.00;;;;4968512;28;108973;-65
2023/06/28 03:01:51;;;;;;;1.37;1.10;;;12.00;99.90;12.00;100570.00;;;;4969178;28;89084;-64
2023/06/28 03:04:17;;;;;;;1.00;0.90;;;12.00;99.90;11.90;100572.00;;;;4964928;28;98370;-64
2023/06/28 03:06:48;;;;;;;1.33;1.23;;;12.00;99.90;11.90;100571.00;;;;4966004;28;109389;-64
2023/06/28 03:09:14;;;;;;;1.87;1.37;;;11.90;99.90;11.90;100564.00;;;;4972019;28;88033;-64
2023/06/28 03:11:39;;;;;;;0.93;0.90;;;11.90;99.90;11.90;100580.00;;;;4969244;28;118932;-64
2023/06/28 03:14:05;;;;;;;2.07;1.43;;;11.90;99.90;11.90;100568.00;;;;4970651;28;88738;-64
2023/06/28 03:16:31;;;;;;;1.97;1.77;;;11.90;99.90;11.90;100578.00;;;;4967159;28;111404;-65
2023/06/28 03:18:56;;;;;;;3.20;1.30;;;11.90;99.90;11.90;100577.00;;;;4966173;28;107337;-63
2023/06/28 03:21:22;;;;;;;1.63;1.53;;;11.90;99.90;11.90;100579.00;;;;4970649;28;117157;-64
2023/06/28 03:23:48;;;;;;;2.70;1.20;;;11.90;99.90;12.00;100578.00;;;;4965465;28;115954;-64
2023/06/28 03:26:13;;;;;;;1.63;1.17;;;11.80;99.90;12.00;100576.00;;;;4969241;28;109737;-64
2023/06/28 03:28:39;;;;;;;2.43;1.27;;;12.00;99.90;12.00;100571.00;;;;4951474;28;89075;-65
2023/06/28 03:31:05;;;;;;;3.33;1.60;;;12.00;99.90;12.00;100573.00;;;;4970615;28;115976;-64
2023/06/28 03:33:30;;;;;;;1.23;1.07;;;12.00;99.90;12.00;100573.00;;;;4969435;28;116162;-65
2023/06/28 03:35:56;;;;;;;1.00;0.90;;;12.00;99.90;12.00;100573.00;;;;4955611;28;88170;-65
2023/06/28 03:38:22;;;;;;;1.73;1.17;;;12.00;99.90;12.10;100575.00;;;;4952936;28;108405;-67
2023/06/28 03:40:47;;;;;;;3.33;1.40;;;12.00;99.90;12.10;100576.00;;;;4967374;28;89308;-65
2023/06/28 03:43:13;;;;;;;2.57;1.47;;;12.10;99.90;12.10;100581.00;;;;4968676;28;117165;-63
2023/06/28 03:45:39;;;;;;;1.10;1.00;;;12.10;99.90;12.10;100583.00;;;;4967684;28;108940;-64
2023/06/28 03:48:04;;;;;;;1.80;1.50;;;12.10;99.90;12.10;100578.00;;;;4965472;28;87829;-65
2023/06/28 03:50:30;;;;;;;1.70;1.10;;;12.10;99.90;12.20;100590.00;;;;4968181;28;113565;-65
2023/06/28 03:52:56;;;;;;;1.10;1.00;;;12.10;99.90;12.20;100579.00;;;;4964648;28;102476;-66
2023/06/28 03:55:21;;;;;;;1.00;0.90;;;12.20;99.90;12.30;100588.00;;;;4966233;28;110221;-65
2023/06/28 03:57:47;;;;;;;3.53;1.00;;;12.30;99.90;12.30;100595.00;;;;4971194;28;107976;-64
2023/06/28 04:00:13;;;;;;;2.00;1.50;;;12.30;99.90;12.40;100602.00;;;;4969983;28;114951;-65
2023/06/28 04:02:40;;;;;;;1.27;1.17;;;12.40;99.90;12.50;100594.00;;;;4969485;28;92558;-65
2023/06/28 04:05:06;;;;;;;2.40;1.70;;;12.40;99.90;12.60;100598.00;;;;4966683;28;88062;-65
2023/06/28 04:07:32;;;;;;;2.27;1.17;;;12.60;99.90;12.60;100601.00;;;;4954424;28;88246;-65
2023/06/28 04:09:58;;;;;;;3.10;1.17;;;12.50;99.90;12.70;100605.00;;;;4950207;28;87095;-64
2023/06/28 04:12:24;;;;;;;1.63;1.53;;;12.60;99.90;12.80;100610.00;;;;4948988;28;88872;-65
2023/06/28 04:14:50;;;;;;;2.03;1.10;;;12.70;99.90;12.90;100610.00;;;;4953738;28;87938;-65
2023/06/28 04:17:16;;;;;;;1.60;1.50;;;12.80;99.90;13.00;100615.00;;;;4949395;28;88653;-65
2023/06/28 04:19:41;;;;;;;2.03;1.50;;;12.90;99.90;13.10;100614.00;;;;4944382;28;117693;-64
2023/06/28 04:22:07;;;;;;;1.07;1.00;;;13.00;99.90;13.20;100613.00;;;;4948591;28;118427;-64
2023/06/28 04:24:32;;;;;;;1.17;0.93;;;13.10;99.90;13.30;100606.00;;;;4948980;28;87729;-64
2023/06/28 04:27:00;;;;;;;4.50;1.90;;;13.20;99.90;13.40;100605.00;;;;4951264;28;108572;-65
2023/06/28 04:29:27;;;;;;;2.27;1.50;;;13.30;99.90;13.60;100607.00;;;;4950191;28;88647;-64
2023/06/28 04:31:53;;;;;;;1.30;1.20;;;13.50;99.90;13.70;100598.00;;;;4951294;28;87999;-64
2023/06/28 04:34:19;;;;;;;2.83;1.33;;;13.60;99.90;13.80;100605.00;;;;4948989;28;101707;-64
2023/06/28 04:36:45;;;;;;;1.40;1.30;;;13.70;99.90;13.90;100611.00;;;;4953992;28;87777;-65
2023/06/28 04:39:12;;;;;;;10.23;1.17;;;13.80;99.90;14.00;100619.00;;;;4949175;28;88884;-65
2023/06/28 04:41:38;;;;;;;1.50;1.23;;;13.90;99.90;14.10;100626.00;;;;4946776;28;109103;-64
2023/06/28 04:44:09;;;;;;;3.25;1.40;;;14.00;99.90;14.20;100624.00;;;;4949184;28;111254;-63
2023/06/28 04:46:34;;;;;;;1.70;1.13;;;14.10;99.90;14.30;100618.00;;;;4949098;28;87724;-64
2023/06/28 04:49:00;;;;;;;1.73;0.80;;;14.20;99.90;14.40;100620.00;;;;4949369;28;118062;-64
2023/06/28 04:51:26;;;;;;;0.55;0.55;;;14.30;99.90;14.50;100616.00;;;;4948808;28;118375;-65
2023/06/28 04:53:52;;;;;;;2.05;1.25;;;14.40;99.90;14.60;100625.00;;;;4950322;28;89311;-63
2023/06/28 04:56:17;;;;;;;1.42;1.23;;;14.50;99.90;14.80;100636.00;;;;4955870;28;89410;-64
2023/06/28 04:58:43;;;;;;;0.80;0.70;;;14.70;99.90;15.00;100637.00;;;;4948951;28;116009;-65
2023/06/28 05:01:09;;;;;;;2.78;1.38;;;14.80;99.90;15.10;100639.00;;;;4933625;28;88137;-65
2023/06/28 05:03:38;;;;;;;2.15;0.90;;;14.90;99.90;15.20;100640.00;;;;4946349;28;110991;-63
2023/06/28 05:06:07;;;;;;;0.55;0.55;;;15.10;99.90;15.30;100634.00;;;;4943408;28;89981;-64
2023/06/28 05:08:34;;;;;;;6.88;1.55;;;15.20;99.90;15.40;100635.00;;;;4949224;28;88890;-63
2023/06/28 05:11:01;;;;;;;5.78;1.00;;;15.30;99.90;15.50;100643.00;;;;4930833;28;88747;-64
2023/06/28 05:13:28;;;;;;;6.90;1.35;;;15.40;99.90;15.60;100626.00;;;;4954141;28;87789;-64
2023/06/28 05:15:53;;;;;;;2.17;0.88;;;15.50;99.90;15.60;100630.00;;;;4954576;28;87684;-64
2023/06/28 05:18:19;;;;;;;1.13;1.02;;;15.50;99.90;15.60;100636.00;;;;4932681;28;118322;-64
2023/06/28 05:20:45;;;;;;;1.17;1.08;;;15.50;99.90;15.70;100631.00;;;;4954159;28;88960;-63
2023/06/28 05:23:17;;;;;;;4.68;0.77;;;15.60;99.90;15.70;100634.00;;;;4952042;28;87214;-63
2023/06/28 05:25:44;;;;;;;1.58;1.48;;;15.60;99.90;15.70;100623.00;;;;4954177;28;88091;-64
2023/06/28 05:28:12;;;;;;;0.68;0.60;;;15.60;99.90;15.80;100628.00;;;;4952700;28;88106;-64
2023/06/28 05:30:39;;;;;;;3.13;1.20;;;15.70;99.90;15.90;100634.00;;;;4954234;28;88939;-65
2023/06/28 05:33:04;;;;;;;1.30;1.05;;;15.70;99.90;15.90;100625.00;;;;4954658;28;88190;-64
2023/06/28 05:35:32;;;;;;;1.38;1.00;;;15.80;99.90;16.00;100632.00;;;;4955571;28;109915;-64
2023/06/28 05:37:59;;;;;;;1.23;1.13;;;15.90;99.90;16.10;100634.00;;;;4954284;28;88524;-65
2023/06/28 05:40:26;;;;;;;0.93;0.85;;;16.00;99.90;16.10;100644.00;;;;4953464;28;87869;-65
2023/06/28 05:42:53;;;;;;;1.60;0.88;;;16.00;99.90;16.20;100647.00;;;;4955812;28;89299;-64
2023/06/28 05:45:20;;;;;;;2.88;1.35;;;16.10;99.90;16.20;100651.00;;;;4953304;28;87908;-65
2023/06/28 05:47:46;;;;;;;2.20;0.93;;;16.10;99.90;16.30;100646.00;;;;4954869;28;92947;-65
2023/06/28 05:50:12;;;;;;;4.80;1.48;;;16.20;99.90;16.30;100652.00;;;;4953180;28;107816;-64
2023/06/28 05:52:38;;;;;;;1.65;1.05;;;16.20;99.90;16.40;100655.00;;;;4952828;28;90792;-64
2023/06/28 05:55:04;;;;;;;1.48;1.38;;;16.30;99.90;16.40;100652.00;;;;4954248;28;92474;-63
2023/06/28 05:57:30;;;;;;;4.10;1.30;;;16.30;99.90;16.50;100656.00;;;;4954781;28;108194;-63
2023/06/28 05:59:55;;;;;;;1.40;1.25;;;16.40;99.90;16.60;100656.00;;;;4953650;28;117216;-64
2023/06/28 06:02:22;;;;;;;1.35;1.00;;;16.50;99.90;16.60;100653.00;;;;4954125;28;111088;-64
2023/06/28 06:04:47;;;;;;;1.33;1.02;;;16.50;99.90;16.60;100651.00;;;;4953307;28;87752;-65
2023/06/28 06:07:13;;;;;;;1.30;0.93;;;16.50;99.90;16.70;100656.00;;;;4952878;28;117748;-65
2023/06/28 06:09:39;;;;;;;1.40;1.23;;;16.60;99.90;16.70;100645.00;;;;4953125;28;88007;-64
2023/06/28 06:12:05;;;;;;;1.23;1.13;;;16.60;99.90;16.70;100652.00;;;;4954162;28;112119;-64
2023/06/28 06:14:33;;;;;;;1.13;0.70;;;16.60;99.90;16.70;100648.00;;;;4952679;28;98033;-63
2023/06/28 06:16:58;;;;;;;2.78;1.27;;;16.60;99.90;16.70;100642.00;;;;4954154;28;114648;-65
2023/06/28 06:19:24;;;;;;;0.77;0.77;;;16.60;99.90;16.80;100652.00;;;;4956448;28;89021;-64
2023/06/28 06:21:50;;;;;;;1.98;1.17;;;16.60;99.90;16.80;100637.00;;;;4953442;28;111667;-64
2023/06/28 06:24:15;;;;;;;0.88;0.70;;;16.70;99.90;16.80;100654.00;;;;4953338;28;107715;-64
2023/06/28 06:26:41;;;;;;;1.58;1.48;;;16.70;99.90;16.80;100653.00;;;;4954058;28;118414;-64
2023/06/28 06:29:07;;;;;;;4.15;1.17;;;16.70;99.90;16.80;100643.00;;;;4950683;28;87822;-63
2023/06/28 06:31:33;;;;;;;1.48;0.95;;;16.70;99.90;16.80;100643.00;;;;4952347;28;110760;-64
2023/06/28 06:34:01;;;;;;;4.78;1.23;;;16.70;99.90;17.00;100646.00;;;;4955693;28;107837;-64
2023/06/28 06:36:27;;;;;;;1.83;0.68;;;16.80;99.90;17.10;100645.00;;;;4951843;28;87881;-64
2023/06/28 06:38:56;;;;;;;2.42;0.80;;;16.90;99.90;17.30;100646.00;;;;4952461;28;99251;-64
2023/06/28 06:41:22;;;;;;;1.30;0.55;;;17.10;99.90;17.40;100653.00;;;;4936054;28;90702;-65
2023/06/28 06:43:49;;;;;;;2.15;1.23;;;17.20;99.90;17.50;100667.00;;;;4952877;28;106580;-64
2023/06/28 06:46:16;;;;;;;3.75;1.38;;;17.30;99.90;17.70;100663.00;;;;4949476;28;88217;-64
2023/06/28 06:48:42;;;;;;;1.83;1.38;;;17.50;99.90;17.80;100671.00;;;;4951904;28;87986;-65
2023/06/28 06:51:08;;;;;;;2.58;1.15;;;17.60;99.90;17.80;100675.00;;;;4951840;28;88313;-64
2023/06/28 06:53:34;;;;;;;0.73;0.73;;;17.70;99.90;17.90;100667.00;;;;4951678;28;88142;-64
2023/06/28 06:55:59;;;;;;;6.10;1.63;;;17.70;99.90;17.90;100677.00;;;;4949310;28;117488;-63
2023/06/28 06:58:28;;;;;;;1.33;1.00;;;17.80;99.90;18.00;100666.00;;;;4952098;28;88432;-65
2023/06/28 07:00:54;;;;;;;2.05;1.02;;;17.90;99.90;18.20;100669.00;;;;4951904;28;87133;-65
2023/06/28 07:03:19;;;;;;;0.95;0.77;;;18.00;99.90;18.20;100669.00;;;;4951487;28;108513;-65
2023/06/28 07:05:45;;;;;;;0.85;0.65;;;18.10;99.90;18.40;100672.00;;;;4951519;28;91833;-65
2023/06/28 07:08:10;;;;;;;0.63;0.63;;;18.20;99.90;18.50;100679.00;;;;4953629;28;88846;-64
2023/06/28 07:10:36;;;;;;;1.27;0.90;;;18.40;99.90;18.60;100674.00;;;;4952752;28;96500;-64
2023/06/28 07:13:02;;;;;;;2.40;0.95;;;18.40;99.90;18.60;100671.00;;;;4946325;28;108996;-64
2023/06/28 07:15:28;;;;;;;1.33;0.88;;;18.50;99.90;18.60;100675.00;;;;4948292;28;116592;-64
2023/06/28 07:17:53;;;;;;;0.85;0.73;;;18.50;99.90;18.60;100667.00;;;;4938437;28;116842;-63
2023/06/28 07:20:20;;;;;;;3.22;1.00;;;18.50;99.90;18.60;100671.00;;;;4951958;28;87998;-64
2023/06/28 07:22:46;;;;;;;0.45;0.45;;;18.50;99.90;18.60;100671.00;;;;4954379;28;97636;-65
2023/06/28 07:25:12;;;;;;;1.42;0.63;;;18.50;99.90;18.70;100667.00;;;;4951910;28;116769;-65
2023/06/28 07:27:38;;;;;;;4.75;0.95;;;18.50;99.90;18.60;100664.00;;;;4948676;28;87705;-65
2023/06/28 07:30:07;;;;;;;0.90;0.75;;;18.60;99.90;18.60;100672.00;;;;4950328;28;103147;-64
2023/06/28 07:32:33;;;;;;;1.13;0.93;;;18.50;99.90;18.70;100670.00;;;;4952172;28;88937;-64
2023/06/28 07:34:59;;;;;;;1.55;0.80;;;18.50;99.90;18.70;100668.00;;;;4951015;28;94363;-64
2023/06/28 07:37:31;;;;;;;0.82;0.70;;;18.60;99.90;18.90;100660.00;;;;4952379;28;108113;-65
2023/06/28 07:40:00;;;;;;;0.75;0.75;;;18.70;99.90;19.10;100685.00;;;;4951796;28;88133;-64
2023/06/28 07:42:26;;;;;;;3.17;0.80;;;18.90;99.90;19.30;100670.00;;;;4954186;28;87785;-65
2023/06/28 07:44:52;;;;;;;2.97;0.90;;;19.10;99.90;19.50;100662.00;;;;4951514;28;88122;-65
2023/06/28 07:47:18;;;;;;;3.72;1.13;;;19.30;99.90;19.80;100672.00;;;;4953644;28;88521;-63
2023/06/28 07:49:44;;;;;;;0.88;0.38;;;19.60;99.90;20.10;100668.00;;;;4950668;28;87026;-64
2023/06/28 07:52:10;;;;;;;3.97;1.33;;;19.90;99.90;20.40;100658.00;;;;4949712;28;87818;-64
2023/06/28 07:54:36;;;;;;;1.33;0.50;;;20.10;99.90;20.60;100656.00;;;;4950280;28;88106;-64
2023/06/28 07:57:03;;;;;;;0.50;0.50;;;20.40;99.90;20.70;100671.00;;;;4951777;28;111238;-64
2023/06/28 07:59:29;;;;;;;4.50;0.85;;;20.50;99.90;20.80;100666.00;;;;4952582;28;87921;-64
2023/06/28 08:01:54;;;;;;;0.80;0.55;;;20.60;99.90;20.80;100661.00;;;;4953505;28;87964;-64
2023/06/28 08:04:20;;;;;;;0.85;0.60;;;20.70;99.30;20.90;100660.00;;;;4953397;28;89135;-65
2023/06/28 08:06:47;;;;;;;1.38;0.68;;;20.80;97.10;20.90;100654.00;;;;4961198;28;93369;-65
2023/06/28 08:09:13;;;;;;;1.67;1.15;;;20.80;96.30;21.00;100653.00;;;;4971940;28;110420;-64
2023/06/28 08:11:39;;;;;;;1.75;1.08;;;20.80;96.00;20.90;100654.00;;;;4975731;28;87875;-65
2023/06/28 08:14:05;;;;;;;4.97;1.13;;;20.80;95.30;20.90;100655.00;;;;4972140;28;109381;-65
2023/06/28 08:16:31;;;;;;;4.05;0.80;;;20.90;95.30;21.00;100660.00;;;;4973165;28;87607;-65
2023/06/28 08:18:56;;;;;;;1.40;0.70;;;20.90;93.60;21.10;100661.00;;;;4974754;28;87926;-65
2023/06/28 08:21:22;;;;;;;1.30;0.35;;;20.90;93.00;21.20;100673.00;;;;4974573;28;108225;-65
2023/06/28 08:23:48;;;;;;;1.08;0.52;;;21.00;92.70;21.40;100658.00;;;;4973206;28;118546;-65
2023/06/28 08:26:13;;;;;;;1.98;1.05;;;21.20;91.40;21.40;100655.00;;;;4972868;28;118404;-65
2023/06/28 08:28:39;;;;;;;1.35;0.55;;;21.40;90.30;21.40;100663.00;;;;4977828;28;96110;-65
2023/06/28 08:31:05;;;;;;;1.58;0.60;;;21.30;89.60;21.50;100668.00;;;;4971464;28;109633;-64
2023/06/28 08:33:30;;;;;;;0.77;0.60;;;21.40;87.20;21.50;100668.00;;;;4976497;28;102489;-64
2023/06/28 08:35:56;;;;;;;1.08;0.40;;;21.40;83.70;21.50;100664.00;;;;4976323;28;102531;-65
2023/06/28 08:38:22;;;;;;;0.82;0.63;;;21.40;83.90;21.60;100666.00;;;;4971840;28;111111;-64
2023/06/28 08:40:48;;;;;;;0.85;0.73;;;21.40;84.50;21.70;100665.00;;;;4974104;28;87684;-65
2023/06/28 08:43:16;;;;;;;0.22;0.22;;;21.50;83.50;21.60;100663.00;;;;4970084;28;88086;-64
2023/06/28 08:45:44;;;;;;;0.40;0.40;;;21.50;83.60;21.70;100667.00;;;;4969504;28;88702;-64
2023/06/28 08:48:11;;;;;;;1.00;0.88;;;21.50;84.70;21.70;100666.00;;;;4973727;28;88006;-64
2023/06/28 08:50:40;;;;;;;1.17;0.60;;;21.60;84.20;21.60;100671.00;;;;4975641;28;101266;-64
2023/06/28 08:53:09;;;;;;;1.05;0.52;;;21.50;82.90;21.50;100664.00;;;;4972487;28;89057;-64
2023/06/28 08:55:36;;;;;;;0.47;0.40;;;21.40;79.70;21.50;100667.00;;;;4974041;28;88586;-64
2023/06/28 08:58:03;;;;;;;0.98;0.52;;;21.40;80.70;21.70;100666.00;;;;4970826;28;87805;-64
2023/06/28 09:00:29;;;;;;;0.93;0.43;;;21.50;81.30;21.80;100663.00;;;;4974227;28;99357;-64
2023/06/28 09:02:57;;;;;;;1.38;0.63;;;21.60;78.40;21.80;100660.00;;;;4975048;28;116358;-65
2023/06/28 09:05:23;;;;;;;0.68;0.68;;;21.70;76.20;21.90;100664.00;;;;4973607;28;114710;-63
2023/06/28 09:07:51;;;;;;;1.17;0.40;;;21.70;77.60;21.90;100663.00;;;;4976408;28;87953;-64
2023/06/28 09:10:17;;;;;;;2.22;0.80;;;21.70;77.60;21.90;100668.00;;;;4974537;28;88824;-64
2023/06/28 09:12:45;;;;;;;2.35;0.85;;;21.80;76.60;21.90;100672.00;;;;4962774;28;88451;-64
2023/06/28 09:15:11;;;;;;;0.95;0.70;;;21.80;75.50;21.90;100661.00;;;;4961609;28;88757;-64
2023/06/28 09:17:36;;;;;;;2.25;0.65;;;21.80;72.70;21.90;100667.00;;;;4975392;28;87794;-64
2023/06/28 09:20:22;;;;;;;0.88;0.80;;;21.80;74.70;22.00;100659.00;;;;4974843;28;108280;-64
2023/06/28 09:22:59;;;;;;;4.18;0.47;;;21.80;74.00;22.20;100665.00;;;;4974838;28;92641;-64
2023/06/28 09:25:31;;;;;;;0.88;0.50;;;21.90;73.00;22.30;100657.00;;;;4970615;28;88097;-64
2023/06/28 09:27:59;;;;;;;4.63;0.70;;;22.00;73.50;22.40;100661.00;;;;4974982;28;87059;-64
2023/06/28 09:30:24;;;;;;;0.43;0.38;;;22.20;71.00;22.50;100662.00;;;;4974783;28;88106;-64
2023/06/28 09:32:51;;;;;;;0.82;0.50;;;22.30;71.00;22.50;100670.00;;;;4971612;28;117931;-64
2023/06/28 09:35:17;;;;;;;0.90;0.60;;;22.30;71.00;22.60;100662.00;;;;4971127;28;89134;-64
2023/06/28 09:37:48;;;;;;;0.50;0.50;;;22.40;69.70;22.70;100661.00;;;;4976438;28;100758;-65
2023/06/28 09:40:18;;;;;;;0.57;0.57;;;22.40;70.30;22.90;100667.00;;;;4956648;28;87880;-64
2023/06/28 09:42:51;;;;;;;0.50;0.45;;;22.60;69.20;22.90;100657.00;;;;4961205;28;89784;-64
2023/06/28 09:45:28;;;;;;;1.90;0.65;;;22.60;67.20;22.90;100651.00;;;;4971051;28;88511;-64
2023/06/28 09:48:01;;;;;;;1.33;0.73;;;22.70;66.70;23.00;100650.00;;;;4974412;28;87707;-63
2023/06/28 09:50:42;;;;;;;1.27;0.68;;;22.80;65.80;23.20;100655.00;;;;4972218;28;98842;-64
2023/06/28 09:53:17;;;;;;;0.60;0.45;;;22.90;66.20;23.40;100655.00;;;;4972932;28;87746;-65
2023/06/28 09:55:44;;;;;;;2.50;0.50;;;23.10;65.10;23.60;100658.00;;;;4976494;28;87691;-64
2023/06/28 09:58:16;;;;;;;1.15;0.30;;;23.20;63.50;23.70;100654.00;;;;4973877;28;87956;-65
2023/06/28 10:00:44;;;;;;;1.48;0.60;;;23.40;62.80;23.80;100655.00;;;;4972935;28;88871;-64
2023/06/28 10:03:13;;;;;;;0.60;0.40;;;23.50;61.90;24.00;100648.00;;;;4975098;28;88454;-67
2023/06/28 10:05:41;;;;;;;1.02;0.65;;;23.60;60.10;24.10;100643.00;;;;4974369;28;88946;-67
2023/06/28 10:08:16;;;;;;;5.38;0.60;;;23.80;60.20;24.30;100636.00;;;;4956834;28;101929;-67
2023/06/28 10:10:44;;;;;;;0.20;0.20;;;23.90;59.30;24.40;100625.00;;;;4974479;28;87753;-66
2023/06/28 10:13:21;;;;;;;1.85;0.65;;;24.10;58.50;24.50;100637.00;;;;4973526;28;88388;-66
2023/06/28 10:16:05;;;;;;;1.42;0.82;;;24.10;58.10;24.50;100648.00;;;;4977042;28;87888;-69
2023/06/28 10:18:31;;;;;;;0.32;0.20;;;24.20;58.60;24.70;100644.00;;;;4971075;28;104275;-66
2023/06/28 10:21:01;;;;;;;0.50;0.30;;;24.30;58.20;24.80;100640.00;;;;4972871;28;109177;-69
2023/06/28 10:23:26;;;;;;;0.85;0.47;;;24.40;56.60;24.80;100646.00;;;;4955985;28;88500;-67
2023/06/28 10:25:54;;;;;;;1.08;0.73;;;24.50;56.70;24.90;100653.00;;;;4976689;28;89135;-67
2023/06/28 10:28:20;;;;;;;0.50;0.50;;;24.50;56.30;25.10;100647.00;;;;4975617;28;87928;-66
2023/06/28 10:30:47;;;;;;;0.45;0.45;;;24.70;56.10;25.20;100655.00;;;;4974152;28;109117;-68
2023/06/28 10:33:17;;;;;;;1.05;0.57;;;24.80;54.80;25.30;100641.00;;;;4962916;28;89888;-67
2023/06/28 10:35:44;;;;;;;4.93;0.80;;;24.90;54.90;25.50;100636.00;;;;4973809;28;87904;-66
2023/06/28 10:38:10;;;;;;;0.50;0.38;;;25.10;55.50;25.70;100650.00;;;;4958786;28;88114;-66
2023/06/28 10:40:37;;;;;;;0.35;0.35;;;25.30;55.60;25.80;100647.00;;;;4973793;28;87947;-66
2023/06/28 10:43:03;;;;;;;0.30;0.30;;;25.40;55.40;25.80;100636.00;;;;4972306;28;115076;-66